LNFTM EDDM-EDDN
Flight info
| Callsign | LNFTM |
|---|---|
| Flight time | 0h 45m |
| Altitude | 10000 |
| Route | INPUD2N/26R INPUD DCT UPALA |
| Aircraft | DA40/L-LSBDGRY/S |
Departure
| Time | 2026-05-05 18:34 |
|---|---|
| Airport | Munich Airport (EDDM) |
Arrival
| Time | 2026-05-05 19:19 |
|---|---|
| Airport | Nuremberg Airport (EDDN) |
| Time | Latitude | Longitude | Altitude | Speed | Heading |
|---|---|---|---|---|---|
| 2026-05-05 17:43 | 48.35241 | 11.80001 | 1456 ft | 0 kts | 263° |
| 2026-05-05 18:04 | 48.35242 | 11.79999 | 1456 ft | 0 kts | 272° |
| 2026-05-05 18:04 | 48.35252 | 11.80001 | 1456 ft | 3 kts | 142° |
| 2026-05-05 18:05 | 48.35247 | 11.80023 | 1456 ft | 2 kts | 88° |
| 2026-05-05 18:05 | 48.35261 | 11.80090 | 1456 ft | 6 kts | 51° |
| 2026-05-05 18:05 | 48.35298 | 11.80136 | 1456 ft | 7 kts | 10° |
| 2026-05-05 18:05 | 48.35358 | 11.80131 | 1456 ft | 12 kts | 352° |
| 2026-05-05 18:06 | 48.35453 | 11.80111 | 1456 ft | 14 kts | 355° |
| 2026-05-05 18:06 | 48.35514 | 11.80103 | 1456 ft | 12 kts | 357° |
| 2026-05-05 18:06 | 48.35601 | 11.80085 | 1456 ft | 8 kts | 353° |
| 2026-05-05 18:06 | 48.35656 | 11.80079 | 1456 ft | 7 kts | 350° |
| 2026-05-05 18:07 | 48.35701 | 11.80075 | 1456 ft | 4 kts | 346° |
| 2026-05-05 18:07 | 48.35777 | 11.80064 | 1454 ft | 12 kts | 350° |
| 2026-05-05 18:07 | 48.35822 | 11.79985 | 1454 ft | 11 kts | 274° |
| 2026-05-05 18:07 | 48.35816 | 11.79866 | 1456 ft | 9 kts | 256° |
| 2026-05-05 18:08 | 48.35811 | 11.79774 | 1456 ft | 10 kts | 263° |
| 2026-05-05 18:08 | 48.35803 | 11.79649 | 1457 ft | 11 kts | 263° |
| 2026-05-05 18:08 | 48.35799 | 11.79590 | 1458 ft | 0 kts | 263° |
| 2026-05-05 18:10 | 48.35799 | 11.79587 | 1458 ft | 3 kts | 264° |
| 2026-05-05 18:11 | 48.35835 | 11.79520 | 1459 ft | 13 kts | 349° |
| 2026-05-05 18:11 | 48.35916 | 11.79506 | 1458 ft | 11 kts | 353° |
| 2026-05-05 18:11 | 48.35997 | 11.79493 | 1457 ft | 11 kts | 353° |
| 2026-05-05 18:11 | 48.36047 | 11.79484 | 1455 ft | 0 kts | 351° |
| 2026-05-05 18:14 | 48.36079 | 11.79478 | 1455 ft | 10 kts | 353° |
| 2026-05-05 18:14 | 48.36162 | 11.79462 | 1453 ft | 9 kts | 354° |
| 2026-05-05 18:15 | 48.36221 | 11.79546 | 1451 ft | 17 kts | 80° |
| 2026-05-05 18:15 | 48.36233 | 11.79712 | 1450 ft | 13 kts | 82° |
| 2026-05-05 18:15 | 48.36246 | 11.79888 | 1447 ft | 20 kts | 84° |
| 2026-05-05 18:15 | 48.36259 | 11.80067 | 1447 ft | 19 kts | 82° |
| 2026-05-05 18:16 | 48.36278 | 11.80304 | 1444 ft | 17 kts | 84° |
| 2026-05-05 18:16 | 48.36295 | 11.80473 | 1444 ft | 11 kts | 66° |
| 2026-05-05 18:16 | 48.36349 | 11.80499 | 1443 ft | 9 kts | 330° |
| 2026-05-05 18:16 | 48.36391 | 11.80390 | 1443 ft | 13 kts | 292° |
| 2026-05-05 18:17 | 48.36424 | 11.80279 | 1443 ft | 0 kts | 292° |
| 2026-05-05 18:32 | 48.36424 | 11.80277 | 1443 ft | 2 kts | 291° |
| 2026-05-05 18:32 | 48.36457 | 11.80163 | 1443 ft | 12 kts | 295° |
| 2026-05-05 18:32 | 48.36493 | 11.80038 | 1443 ft | 16 kts | 292° |
| 2026-05-05 18:32 | 48.36516 | 11.79903 | 1445 ft | 7 kts | 272° |
| 2026-05-05 18:33 | 48.36516 | 11.79893 | 1445 ft | 0 kts | 265° |
| 2026-05-05 18:33 | 48.36501 | 11.79682 | 1447 ft | 47 kts | 263° |
| 2026-05-05 18:33 | 48.36453 | 11.79000 | 1505 ft | 75 kts | 267° |
| 2026-05-05 18:33 | 48.36418 | 11.78207 | 1672 ft | 77 kts | 267° |
| 2026-05-05 18:34 | 48.36353 | 11.77366 | 1816 ft | 87 kts | 265° |
| 2026-05-05 18:34 | 48.36266 | 11.76448 | 2024 ft | 89 kts | 261° |
| 2026-05-05 18:34 | 48.36148 | 11.75546 | 2244 ft | 89 kts | 263° |
| 2026-05-05 18:34 | 48.36051 | 11.74627 | 2467 ft | 88 kts | 265° |
| 2026-05-05 18:35 | 48.35972 | 11.73705 | 2688 ft | 88 kts | 266° |
| 2026-05-05 18:35 | 48.35904 | 11.72795 | 2906 ft | 88 kts | 267° |
| 2026-05-05 18:35 | 48.35842 | 11.71877 | 3126 ft | 88 kts | 267° |
| 2026-05-05 18:35 | 48.35785 | 11.70964 | 3345 ft | 88 kts | 268° |
| 2026-05-05 18:36 | 48.35730 | 11.70057 | 3562 ft | 88 kts | 268° |
| 2026-05-05 18:36 | 48.35675 | 11.69148 | 3779 ft | 87 kts | 268° |
| 2026-05-05 18:36 | 48.35622 | 11.68236 | 3997 ft | 87 kts | 268° |
| 2026-05-05 18:36 | 48.35622 | 11.67338 | 4202 ft | 87 kts | 289° |
| 2026-05-05 18:37 | 48.36007 | 11.66642 | 4428 ft | 87 kts | 322° |
| 2026-05-05 18:37 | 48.36546 | 11.66190 | 4637 ft | 89 kts | 332° |
| 2026-05-05 18:37 | 48.37125 | 11.65852 | 4848 ft | 90 kts | 337° |
| 2026-05-05 18:37 | 48.37726 | 11.65576 | 5057 ft | 91 kts | 339° |
| 2026-05-05 18:38 | 48.38341 | 11.65336 | 5266 ft | 92 kts | 341° |
| 2026-05-05 18:38 | 48.38968 | 11.65118 | 5474 ft | 92 kts | 342° |
| 2026-05-05 18:38 | 48.39591 | 11.64916 | 5679 ft | 93 kts | 342° |
| 2026-05-05 18:38 | 48.40232 | 11.64716 | 5888 ft | 94 kts | 342° |
| 2026-05-05 18:39 | 48.40868 | 11.64523 | 6092 ft | 94 kts | 342° |
| 2026-05-05 18:39 | 48.41508 | 11.64331 | 6296 ft | 95 kts | 342° |
| 2026-05-05 18:39 | 48.42156 | 11.64138 | 6501 ft | 95 kts | 342° |
| 2026-05-05 18:39 | 48.42803 | 11.63947 | 6703 ft | 96 kts | 341° |
| 2026-05-05 18:40 | 48.43454 | 11.63755 | 6904 ft | 96 kts | 341° |
| 2026-05-05 18:40 | 48.44110 | 11.63561 | 7105 ft | 97 kts | 341° |
| 2026-05-05 18:40 | 48.44776 | 11.63365 | 7307 ft | 97 kts | 341° |
| 2026-05-05 18:40 | 48.45444 | 11.63168 | 7507 ft | 98 kts | 341° |
| 2026-05-05 18:41 | 48.46110 | 11.62972 | 7705 ft | 99 kts | 340° |
| 2026-05-05 18:41 | 48.46779 | 11.62774 | 7902 ft | 99 kts | 340° |
| 2026-05-05 18:41 | 48.47459 | 11.62574 | 8099 ft | 100 kts | 340° |
| 2026-05-05 18:41 | 48.48145 | 11.62372 | 8296 ft | 101 kts | 340° |
| 2026-05-05 18:42 | 48.48830 | 11.62169 | 8491 ft | 101 kts | 340° |
| 2026-05-05 18:42 | 48.49527 | 11.61964 | 8686 ft | 102 kts | 340° |
| 2026-05-05 18:42 | 48.50236 | 11.61752 | 8818 ft | 108 kts | 340° |
| 2026-05-05 18:42 | 48.51011 | 11.61516 | 8844 ft | 119 kts | 340° |
| 2026-05-05 18:43 | 48.51859 | 11.61261 | 8848 ft | 128 kts | 341° |
| 2026-05-05 18:43 | 48.52752 | 11.60997 | 8847 ft | 134 kts | 341° |
| 2026-05-05 18:43 | 48.53677 | 11.60726 | 8845 ft | 139 kts | 342° |
| 2026-05-05 18:43 | 48.54639 | 11.60445 | 8843 ft | 141 kts | 342° |
| 2026-05-05 18:44 | 48.55605 | 11.60161 | 8838 ft | 144 kts | 342° |
| 2026-05-05 18:44 | 48.56599 | 11.59862 | 8831 ft | 144 kts | 339° |
| 2026-05-05 18:44 | 48.57545 | 11.59411 | 8826 ft | 143 kts | 334° |
| 2026-05-05 18:44 | 48.58492 | 11.58889 | 8803 ft | 145 kts | 332° |
| 2026-05-05 18:45 | 48.59436 | 11.58350 | 8806 ft | 146 kts | 332° |
| 2026-05-05 18:45 | 48.60392 | 11.57799 | 8820 ft | 145 kts | 332° |
| 2026-05-05 18:45 | 48.61257 | 11.57313 | 9258 ft | 120 kts | 331° |
| 2026-05-05 18:45 | 48.62004 | 11.56888 | 9535 ft | 114 kts | 329° |
| 2026-05-05 18:46 | 48.62738 | 11.56460 | 9769 ft | 114 kts | 329° |
| 2026-05-05 18:46 | 48.63506 | 11.56003 | 9832 ft | 123 kts | 329° |
| 2026-05-05 18:46 | 48.64333 | 11.55518 | 9842 ft | 130 kts | 330° |
| 2026-05-05 18:46 | 48.65192 | 11.55019 | 9843 ft | 135 kts | 330° |
| 2026-05-05 18:47 | 48.66081 | 11.54504 | 9842 ft | 139 kts | 331° |
| 2026-05-05 18:47 | 48.67002 | 11.53972 | 9841 ft | 142 kts | 331° |
| 2026-05-05 18:47 | 48.67923 | 11.53441 | 9837 ft | 144 kts | 331° |
| 2026-05-05 18:47 | 48.68866 | 11.52896 | 9835 ft | 145 kts | 331° |
| 2026-05-05 18:48 | 48.69808 | 11.52352 | 9827 ft | 146 kts | 331° |
| 2026-05-05 18:48 | 48.70762 | 11.51800 | 9815 ft | 147 kts | 331° |
| 2026-05-05 18:48 | 48.71714 | 11.51248 | 9808 ft | 147 kts | 331° |
| 2026-05-05 18:48 | 48.72690 | 11.50684 | 9811 ft | 147 kts | 331° |
| 2026-05-05 18:49 | 48.73641 | 11.50133 | 9805 ft | 147 kts | 331° |
| 2026-05-05 18:49 | 48.74594 | 11.49581 | 9804 ft | 147 kts | 331° |
| 2026-05-05 18:49 | 48.75549 | 11.49027 | 9806 ft | 147 kts | 331° |
| 2026-05-05 18:49 | 48.76504 | 11.48473 | 9806 ft | 147 kts | 331° |
| 2026-05-05 18:50 | 48.77462 | 11.47916 | 9807 ft | 147 kts | 331° |
| 2026-05-05 18:50 | 48.78412 | 11.47364 | 9808 ft | 147 kts | 331° |
| 2026-05-05 18:50 | 48.79366 | 11.46810 | 9808 ft | 147 kts | 331° |
| 2026-05-05 18:50 | 48.80321 | 11.46254 | 9809 ft | 147 kts | 331° |
| 2026-05-05 18:51 | 48.81273 | 11.45699 | 9810 ft | 147 kts | 331° |
| 2026-05-05 18:51 | 48.82230 | 11.45142 | 9810 ft | 147 kts | 331° |
| 2026-05-05 18:51 | 48.83189 | 11.44583 | 9811 ft | 147 kts | 331° |
| 2026-05-05 18:51 | 48.84141 | 11.44029 | 9812 ft | 147 kts | 331° |
| 2026-05-05 18:52 | 48.85090 | 11.43476 | 9812 ft | 147 kts | 332° |
| 2026-05-05 18:52 | 48.86053 | 11.42914 | 9813 ft | 147 kts | 332° |
| 2026-05-05 18:52 | 48.87006 | 11.42358 | 9813 ft | 147 kts | 332° |
| 2026-05-05 18:52 | 48.87960 | 11.41802 | 9814 ft | 147 kts | 332° |
| 2026-05-05 18:53 | 48.88920 | 11.41242 | 9815 ft | 147 kts | 332° |
| 2026-05-05 18:53 | 48.89874 | 11.40686 | 9815 ft | 147 kts | 332° |
| 2026-05-05 18:53 | 48.90838 | 11.40123 | 9816 ft | 148 kts | 332° |
| 2026-05-05 18:53 | 48.91788 | 11.39585 | 9814 ft | 150 kts | 337° |
| 2026-05-05 18:54 | 48.92870 | 11.39704 | 9816 ft | 158 kts | 11° |
| 2026-05-05 18:54 | 48.93905 | 11.40210 | 9816 ft | 160 kts | 14° |
| 2026-05-05 18:54 | 48.94967 | 11.40756 | 9828 ft | 159 kts | 14° |
| 2026-05-05 18:54 | 48.96011 | 11.41295 | 9815 ft | 160 kts | 14° |
| 2026-05-05 18:55 | 48.97066 | 11.41841 | 9815 ft | 160 kts | 14° |
| 2026-05-05 18:55 | 48.98132 | 11.42392 | 9817 ft | 160 kts | 14° |
| 2026-05-05 18:55 | 48.99182 | 11.42936 | 9814 ft | 160 kts | 14° |
| 2026-05-05 18:55 | 49.00227 | 11.43477 | 9814 ft | 160 kts | 14° |
| 2026-05-05 18:56 | 49.01280 | 11.44023 | 9814 ft | 160 kts | 14° |
| 2026-05-05 18:56 | 49.02328 | 11.44566 | 9813 ft | 159 kts | 14° |
| 2026-05-05 18:56 | 49.03384 | 11.45114 | 9813 ft | 159 kts | 14° |
| 2026-05-05 18:56 | 49.04420 | 11.45652 | 9812 ft | 159 kts | 14° |
| 2026-05-05 18:57 | 49.05471 | 11.46198 | 9812 ft | 159 kts | 14° |
| 2026-05-05 18:57 | 49.06517 | 11.46742 | 9811 ft | 158 kts | 14° |
| 2026-05-05 18:57 | 49.07548 | 11.47278 | 9811 ft | 158 kts | 14° |
| 2026-05-05 18:57 | 49.08593 | 11.47821 | 9811 ft | 158 kts | 14° |
| 2026-05-05 18:58 | 49.09641 | 11.48366 | 9810 ft | 158 kts | 14° |
| 2026-05-05 18:58 | 49.10678 | 11.48906 | 9808 ft | 157 kts | 14° |
| 2026-05-05 18:58 | 49.11712 | 11.49443 | 9808 ft | 157 kts | 14° |
| 2026-05-05 18:58 | 49.12749 | 11.49982 | 9807 ft | 157 kts | 14° |
| 2026-05-05 18:59 | 49.13766 | 11.50512 | 9806 ft | 156 kts | 14° |
| 2026-05-05 18:59 | 49.14807 | 11.51055 | 9806 ft | 156 kts | 14° |
| 2026-05-05 18:59 | 49.15829 | 11.51588 | 9806 ft | 156 kts | 14° |
| 2026-05-05 18:59 | 49.16855 | 11.52124 | 9805 ft | 156 kts | 14° |
| 2026-05-05 19:00 | 49.17889 | 11.52666 | 9805 ft | 156 kts | 14° |
| 2026-05-05 19:00 | 49.18912 | 11.53201 | 9805 ft | 156 kts | 14° |
| 2026-05-05 19:00 | 49.19944 | 11.53711 | 9800 ft | 154 kts | 6° |
| 2026-05-05 19:00 | 49.20993 | 11.53794 | 9725 ft | 151 kts | 354° |
| 2026-05-05 19:01 | 49.22037 | 11.53785 | 9508 ft | 148 kts | 353° |
| 2026-05-05 19:01 | 49.23050 | 11.53771 | 9294 ft | 145 kts | 353° |
| 2026-05-05 19:01 | 49.24060 | 11.53755 | 9077 ft | 144 kts | 353° |
| 2026-05-05 19:01 | 49.25053 | 11.53738 | 8851 ft | 144 kts | 353° |
| 2026-05-05 19:02 | 49.26054 | 11.53717 | 8624 ft | 143 kts | 353° |
| 2026-05-05 19:02 | 49.27043 | 11.53695 | 8399 ft | 143 kts | 353° |
| 2026-05-05 19:02 | 49.28038 | 11.53671 | 8172 ft | 142 kts | 353° |
| 2026-05-05 19:02 | 49.29022 | 11.53644 | 7946 ft | 142 kts | 353° |
| 2026-05-05 19:03 | 49.30005 | 11.53616 | 7720 ft | 141 kts | 353° |
| 2026-05-05 19:03 | 49.30973 | 11.53585 | 7496 ft | 140 kts | 353° |
| 2026-05-05 19:03 | 49.31943 | 11.53552 | 7270 ft | 140 kts | 353° |
| 2026-05-05 19:03 | 49.32919 | 11.53515 | 7043 ft | 139 kts | 353° |
| 2026-05-05 19:04 | 49.33888 | 11.53477 | 6816 ft | 139 kts | 353° |
| 2026-05-05 19:04 | 49.34849 | 11.53435 | 6591 ft | 138 kts | 353° |
| 2026-05-05 19:04 | 49.35796 | 11.53398 | 6427 ft | 133 kts | 354° |
| 2026-05-05 19:04 | 49.36735 | 11.53355 | 6174 ft | 135 kts | 353° |
| 2026-05-05 19:05 | 49.37684 | 11.53307 | 5944 ft | 136 kts | 353° |
| 2026-05-05 19:05 | 49.38618 | 11.53256 | 5725 ft | 135 kts | 353° |
| 2026-05-05 19:05 | 49.39557 | 11.53202 | 5500 ft | 135 kts | 353° |
| 2026-05-05 19:05 | 49.40495 | 11.53145 | 5275 ft | 135 kts | 353° |
| 2026-05-05 19:06 | 49.41425 | 11.53085 | 5051 ft | 134 kts | 353° |
| 2026-05-05 19:06 | 49.42354 | 11.53021 | 4829 ft | 134 kts | 353° |
| 2026-05-05 19:06 | 49.43283 | 11.52955 | 4603 ft | 134 kts | 353° |
| 2026-05-05 19:06 | 49.44207 | 11.52885 | 4385 ft | 133 kts | 353° |
| 2026-05-05 19:07 | 49.45132 | 11.52812 | 4158 ft | 133 kts | 353° |
| 2026-05-05 19:07 | 49.46051 | 11.52737 | 3971 ft | 129 kts | 353° |
| 2026-05-05 19:07 | 49.46901 | 11.52670 | 3921 ft | 122 kts | 353° |
| 2026-05-05 19:07 | 49.47750 | 11.52605 | 3958 ft | 120 kts | 353° |
| 2026-05-05 19:08 | 49.48589 | 11.52541 | 3960 ft | 122 kts | 353° |
| 2026-05-05 19:08 | 49.49439 | 11.52454 | 3956 ft | 123 kts | 345° |
| 2026-05-05 19:08 | 49.50116 | 11.51723 | 3944 ft | 119 kts | 299° |
| 2026-05-05 19:08 | 49.50211 | 11.50499 | 3949 ft | 118 kts | 254° |
| 2026-05-05 19:09 | 49.49685 | 11.49550 | 3960 ft | 122 kts | 213° |
| 2026-05-05 19:09 | 49.48904 | 11.49029 | 3975 ft | 123 kts | 205° |
| 2026-05-05 19:09 | 49.48161 | 11.48388 | 3948 ft | 123 kts | 227° |
| 2026-05-05 19:09 | 49.47727 | 11.47319 | 3953 ft | 120 kts | 261° |
| 2026-05-05 19:10 | 49.47827 | 11.46058 | 3983 ft | 117 kts | 276° |
| 2026-05-05 19:10 | 49.47694 | 11.44809 | 3981 ft | 118 kts | 256° |
| 2026-05-05 19:10 | 49.47452 | 11.43591 | 3971 ft | 120 kts | 254° |
| 2026-05-05 19:10 | 49.47203 | 11.42365 | 3971 ft | 120 kts | 256° |
| 2026-05-05 19:11 | 49.47035 | 11.41095 | 3970 ft | 120 kts | 263° |
| 2026-05-05 19:11 | 49.46971 | 11.39823 | 3970 ft | 120 kts | 269° |
| 2026-05-05 19:11 | 49.46978 | 11.38536 | 3972 ft | 120 kts | 273° |
| 2026-05-05 19:11 | 49.47033 | 11.37256 | 3972 ft | 119 kts | 275° |
| 2026-05-05 19:12 | 49.47117 | 11.35990 | 3974 ft | 119 kts | 277° |
| 2026-05-05 19:12 | 49.47216 | 11.34757 | 3976 ft | 119 kts | 277° |
| 2026-05-05 19:12 | 49.47321 | 11.33491 | 3979 ft | 118 kts | 277° |
| 2026-05-05 19:12 | 49.47433 | 11.32245 | 3956 ft | 121 kts | 277° |
| 2026-05-05 19:13 | 49.47552 | 11.30995 | 3879 ft | 103 kts | 278° |
| 2026-05-05 19:13 | 49.47657 | 11.29931 | 3686 ft | 96 kts | 278° |
| 2026-05-05 19:13 | 49.47755 | 11.28950 | 3523 ft | 90 kts | 278° |
| 2026-05-05 19:13 | 49.47847 | 11.28033 | 3385 ft | 85 kts | 278° |
| 2026-05-05 19:14 | 49.47935 | 11.27148 | 3263 ft | 81 kts | 278° |
| 2026-05-05 19:14 | 49.48020 | 11.26299 | 3158 ft | 80 kts | 278° |
| 2026-05-05 19:14 | 49.48100 | 11.25460 | 3079 ft | 81 kts | 278° |
| 2026-05-05 19:14 | 49.48190 | 11.24593 | 2999 ft | 83 kts | 279° |
| 2026-05-05 19:15 | 49.48287 | 11.23695 | 2905 ft | 87 kts | 279° |
| 2026-05-05 19:15 | 49.48391 | 11.22767 | 2794 ft | 88 kts | 279° |
| 2026-05-05 19:15 | 49.48485 | 11.21832 | 2681 ft | 87 kts | 279° |
| 2026-05-05 19:15 | 49.48577 | 11.20924 | 2556 ft | 87 kts | 278° |
| 2026-05-05 19:16 | 49.48664 | 11.19993 | 2438 ft | 87 kts | 278° |
| 2026-05-05 19:16 | 49.48759 | 11.19070 | 2307 ft | 88 kts | 279° |
| 2026-05-05 19:16 | 49.48847 | 11.18134 | 2176 ft | 88 kts | 277° |
| 2026-05-05 19:16 | 49.48935 | 11.17200 | 2062 ft | 87 kts | 279° |
| 2026-05-05 19:17 | 49.49042 | 11.16289 | 1943 ft | 87 kts | 280° |
| 2026-05-05 19:17 | 49.49128 | 11.15361 | 1827 ft | 86 kts | 277° |
| 2026-05-05 19:17 | 49.49216 | 11.14455 | 1714 ft | 85 kts | 279° |
| 2026-05-05 19:17 | 49.49304 | 11.13544 | 1596 ft | 85 kts | 278° |
| 2026-05-05 19:18 | 49.49392 | 11.12648 | 1476 ft | 85 kts | 279° |
| 2026-05-05 19:18 | 49.49477 | 11.11752 | 1372 ft | 84 kts | 278° |
| 2026-05-05 19:18 | 49.49569 | 11.10847 | 1262 ft | 84 kts | 279° |
| 2026-05-05 19:18 | 49.49653 | 11.09987 | 1168 ft | 76 kts | 279° |
| 2026-05-05 19:19 | 49.49730 | 11.09206 | 1051 ft | 70 kts | 279° |
| 2026-05-05 19:19 | 49.49795 | 11.08570 | 1034 ft | 50 kts | 278° |
| 2026-05-05 19:19 | 49.49836 | 11.08131 | 1026 ft | 34 kts | 282° |
| 2026-05-05 19:19 | 49.49863 | 11.07836 | 1024 ft | 22 kts | 280° |
| 2026-05-05 19:20 | 49.49867 | 11.07659 | 1020 ft | 8 kts | 232° |
| 2026-05-05 19:20 | 49.49798 | 11.07670 | 1019 ft | 18 kts | 153° |
| 2026-05-05 19:20 | 49.49730 | 11.07721 | 1019 ft | 0 kts | 148° |
| 2026-05-05 19:21 | 49.49654 | 11.07772 | 1019 ft | 13 kts | 175° |
| 2026-05-05 19:22 | 49.49614 | 11.07751 | 1018 ft | 9 kts | 218° |
| 2026-05-05 19:22 | 49.49597 | 11.07652 | 1017 ft | 11 kts | 278° |
| 2026-05-05 19:22 | 49.49612 | 11.07502 | 1017 ft | 16 kts | 278° |
| 2026-05-05 19:22 | 49.49631 | 11.07330 | 1013 ft | 14 kts | 278° |
| 2026-05-05 19:23 | 49.49630 | 11.07225 | 1013 ft | 5 kts | 230° |
| 2026-05-05 19:23 | 49.49593 | 11.07207 | 1013 ft | 4 kts | 192° |
| 2026-05-05 19:23 | 49.49560 | 11.07199 | 1013 ft | 10 kts | 190° |
| 2026-05-05 19:23 | 49.49523 | 11.07189 | 1013 ft | 0 kts | 178° |
| 2026-05-05 19:24 | 49.49492 | 11.07205 | 1013 ft | 0 kts | 129° |
| 2026-05-05 19:24 | 49.49488 | 11.07231 | 1013 ft | 1 kts | 92° |
| 2026-05-05 19:24 | 49.49488 | 11.07275 | 1013 ft | 11 kts | 89° |
| 2026-05-05 19:24 | 49.49499 | 11.07331 | 1013 ft | 0 kts | 29° |
| 2026-05-05 19:25 | 49.49518 | 11.07328 | 1013 ft | 0 kts | 251° |
| 2026-05-05 19:25 | 49.49521 | 11.07309 | 1013 ft | 5 kts | 293° |
| 2026-05-05 19:25 | 49.49542 | 11.07312 | 1013 ft | 0 kts | 346° |